メインページ
METAR-TAF:

METAR-TAF

空港 :

Jask, イラン

緯度: 26-38N, 経度: 057-46E, 海抜: 3m

現時点の気象観測

当レポートは34分前の04:00(UTC)に作成
の風 4kt
気温 29°C
湿度 74%
気圧 1005 hPa
視程: 6000m

METAR: OIZJ 220400Z 17004KT 6000 NSC 29/24 Q1005

時間: 09:04 (04:34 UTC)


TAF: 見つかりません

4,000以上の空港の気象観測と天気予報(METAR報とTAF報)

利用可能な観測所は地図上に黄色い丸と赤い丸で示す。

丸の上にカーソルを重ねると観測所名を参照できる。

次にクリックすると気象観測と天気予報を参照できる。

マップの切り替え:黒色「×」印の緑ボタンをクリックして拡大、「-」印の緑ボタンをクリックして縮小、緑色の三角印をクリックして隣りの地図に切り替え


METAR-TAF: